sensor_id;sensor_type;location;lat;lon;timestamp;pressure;altitude;pressure_sealevel;temperature
9119;BMP180;4594;50.994;7.126;2022-12-05T00:01:30;100581.00;;;9.90
9119;BMP180;4594;50.994;7.126;2022-12-05T00:03:59;100570.00;;;9.90
9119;BMP180;4594;50.994;7.126;2022-12-05T00:06:27;100575.00;;;9.90
9119;BMP180;4594;50.994;7.126;2022-12-05T00:08:55;100578.00;;;9.90
9119;BMP180;4594;50.994;7.126;2022-12-05T00:11:25;100590.00;;;9.90
9119;BMP180;4594;50.994;7.126;2022-12-05T00:13:54;100581.00;;;9.90
9119;BMP180;4594;50.994;7.126;2022-12-05T00:16:23;100582.00;;;9.90
9119;BMP180;4594;50.994;7.126;2022-12-05T00:18:50;100589.00;;;9.90
9119;BMP180;4594;50.994;7.126;2022-12-05T00:21:26;100592.00;;;9.90
9119;BMP180;4594;50.994;7.126;2022-12-05T00:23:54;100598.00;;;9.90
9119;BMP180;4594;50.994;7.126;2022-12-05T00:26:21;100579.00;;;10.00
9119;BMP180;4594;50.994;7.126;2022-12-05T00:28:48;100593.00;;;10.00
9119;BMP180;4594;50.994;7.126;2022-12-05T00:31:19;100590.00;;;10.00
9119;BMP180;4594;50.994;7.126;2022-12-05T00:33:46;100590.00;;;10.00
9119;BMP180;4594;50.994;7.126;2022-12-05T00:36:27;100599.00;;;9.90
9119;BMP180;4594;50.994;7.126;2022-12-05T00:38:54;100592.00;;;10.00
9119;BMP180;4594;50.994;7.126;2022-12-05T00:41:23;100583.00;;;10.00
9119;BMP180;4594;50.994;7.126;2022-12-05T00:43:50;100579.00;;;10.00
9119;BMP180;4594;50.994;7.126;2022-12-05T00:46:20;100587.00;;;10.00
9119;BMP180;4594;50.994;7.126;2022-12-05T00:48:46;100574.00;;;10.00
9119;BMP180;4594;50.994;7.126;2022-12-05T00:51:19;100579.00;;;10.00
9119;BMP180;4594;50.994;7.126;2022-12-05T00:53:46;100587.00;;;10.00
9119;BMP180;4594;50.994;7.126;2022-12-05T00:56:17;100580.00;;;10.00
9119;BMP180;4594;50.994;7.126;2022-12-05T00:58:44;100574.00;;;10.00
9119;BMP180;4594;50.994;7.126;2022-12-05T01:01:18;100580.00;;;10.00
9119;BMP180;4594;50.994;7.126;2022-12-05T01:03:46;100568.00;;;10.00
9119;BMP180;4594;50.994;7.126;2022-12-05T01:06:14;100573.00;;;10.00
9119;BMP180;4594;50.994;7.126;2022-12-05T01:08:41;100582.00;;;10.00
9119;BMP180;4594;50.994;7.126;2022-12-05T01:11:09;100583.00;;;10.00
9119;BMP180;4594;50.994;7.126;2022-12-05T01:13:35;100580.00;;;10.00
9119;BMP180;4594;50.994;7.126;2022-12-05T01:16:01;100582.00;;;10.00
9119;BMP180;4594;50.994;7.126;2022-12-05T01:18:28;100588.00;;;10.00
9119;BMP180;4594;50.994;7.126;2022-12-05T01:20:54;100593.00;;;10.00
9119;BMP180;4594;50.994;7.126;2022-12-05T01:23:21;100598.00;;;10.10
9119;BMP180;4594;50.994;7.126;2022-12-05T01:25:50;100594.00;;;10.10
9119;BMP180;4594;50.994;7.126;2022-12-05T01:28:17;100605.00;;;10.10
9119;BMP180;4594;50.994;7.126;2022-12-05T01:30:46;100600.00;;;10.00
9119;BMP180;4594;50.994;7.126;2022-12-05T01:33:13;100595.00;;;10.00
9119;BMP180;4594;50.994;7.126;2022-12-05T01:35:39;100605.00;;;10.00
9119;BMP180;4594;50.994;7.126;2022-12-05T01:38:07;100607.00;;;10.00
9119;BMP180;4594;50.994;7.126;2022-12-05T01:40:34;100601.00;;;10.00
9119;BMP180;4594;50.994;7.126;2022-12-05T01:43:03;100611.00;;;10.00
9119;BMP180;4594;50.994;7.126;2022-12-05T01:45:38;100616.00;;;10.00
9119;BMP180;4594;50.994;7.126;2022-12-05T01:48:10;100617.00;;;10.00
9119;BMP180;4594;50.994;7.126;2022-12-05T01:50:37;100608.00;;;9.90
9119;BMP180;4594;50.994;7.126;2022-12-05T01:53:04;100618.00;;;9.90
9119;BMP180;4594;50.994;7.126;2022-12-05T01:55:30;100616.00;;;9.90
9119;BMP180;4594;50.994;7.126;2022-12-05T01:57:56;100612.00;;;9.90
9119;BMP180;4594;50.994;7.126;2022-12-05T02:00:23;100622.00;;;9.90
9119;BMP180;4594;50.994;7.126;2022-12-05T02:03:03;100609.00;;;9.90
9119;BMP180;4594;50.994;7.126;2022-12-05T02:05:34;100605.00;;;9.90
9119;BMP180;4594;50.994;7.126;2022-12-05T02:08:04;100612.00;;;9.80
9119;BMP180;4594;50.994;7.126;2022-12-05T02:10:37;100622.00;;;9.80
9119;BMP180;4594;50.994;7.126;2022-12-05T02:16:42;100612.00;;;9.70
9119;BMP180;4594;50.994;7.126;2022-12-05T02:30:16;100616.00;;;9.50
9119;BMP180;4594;50.994;7.126;2022-12-05T02:33:11;100624.00;;;9.50
9119;BMP180;4594;50.994;7.126;2022-12-05T02:36:24;100623.00;;;9.40
9119;BMP180;4594;50.994;7.126;2022-12-05T02:42:11;100619.00;;;9.40
9119;BMP180;4594;50.994;7.126;2022-12-05T02:44:45;100632.00;;;9.40
9119;BMP180;4594;50.994;7.126;2022-12-05T02:47:17;100623.00;;;9.30
9119;BMP180;4594;50.994;7.126;2022-12-05T02:49:46;100630.00;;;9.30
9119;BMP180;4594;50.994;7.126;2022-12-05T02:52:15;100628.00;;;9.30
9119;BMP180;4594;50.994;7.126;2022-12-05T02:54:45;100621.00;;;9.20
9119;BMP180;4594;50.994;7.126;2022-12-05T02:57:13;100642.00;;;9.20
9119;BMP180;4594;50.994;7.126;2022-12-05T02:59:40;100635.00;;;9.10
9119;BMP180;4594;50.994;7.126;2022-12-05T03:02:19;100640.00;;;9.00
9119;BMP180;4594;50.994;7.126;2022-12-05T03:04:46;100631.00;;;8.90
9119;BMP180;4594;50.994;7.126;2022-12-05T03:07:14;100647.00;;;8.90
9119;BMP180;4594;50.994;7.126;2022-12-05T03:09:49;100648.00;;;8.80
9119;BMP180;4594;50.994;7.126;2022-12-05T03:12:21;100644.00;;;8.80
9119;BMP180;4594;50.994;7.126;2022-12-05T03:15:38;100647.00;;;8.70
9119;BMP180;4594;50.994;7.126;2022-12-05T03:18:41;100650.00;;;8.60
9119;BMP180;4594;50.994;7.126;2022-12-05T03:21:29;100646.00;;;8.50
9119;BMP180;4594;50.994;7.126;2022-12-05T03:24:02;100651.00;;;8.50
9119;BMP180;4594;50.994;7.126;2022-12-05T03:27:15;100655.00;;;8.40
9119;BMP180;4594;50.994;7.126;2022-12-05T03:32:47;100649.00;;;8.30
9119;BMP180;4594;50.994;7.126;2022-12-05T03:43:42;100649.00;;;8.10
9119;BMP180;4594;50.994;7.126;2022-12-05T03:46:39;100642.00;;;8.10
9119;BMP180;4594;50.994;7.126;2022-12-05T03:49:46;100650.00;;;8.00
9119;BMP180;4594;50.994;7.126;2022-12-05T03:52:36;100649.00;;;8.00
9119;BMP180;4594;50.994;7.126;2022-12-05T03:55:08;100651.00;;;8.00
9119;BMP180;4594;50.994;7.126;2022-12-05T04:00:14;100646.00;;;7.90
9119;BMP180;4594;50.994;7.126;2022-12-05T04:02:52;100652.00;;;7.90
9119;BMP180;4594;50.994;7.126;2022-12-05T04:05:29;100654.00;;;7.90
9119;BMP180;4594;50.994;7.126;2022-12-05T04:08:09;100655.00;;;7.90
9119;BMP180;4594;50.994;7.126;2022-12-05T04:10:40;100653.00;;;7.80
9119;BMP180;4594;50.994;7.126;2022-12-05T04:13:24;100647.00;;;7.80
9119;BMP180;4594;50.994;7.126;2022-12-05T04:16:14;100649.00;;;7.80
9119;BMP180;4594;50.994;7.126;2022-12-05T04:19:35;100657.00;;;7.80
9119;BMP180;4594;50.994;7.126;2022-12-05T04:22:23;100664.00;;;7.80
9119;BMP180;4594;50.994;7.126;2022-12-05T04:24:51;100661.00;;;7.80
9119;BMP180;4594;50.994;7.126;2022-12-05T04:27:58;100662.00;;;7.70
9119;BMP180;4594;50.994;7.126;2022-12-05T04:31:17;100661.00;;;7.70
9119;BMP180;4594;50.994;7.126;2022-12-05T04:33:28;100661.00;;;7.70
9119;BMP180;4594;50.994;7.126;2022-12-05T04:36:13;100661.00;;;7.80
9119;BMP180;4594;50.994;7.126;2022-12-05T04:38:50;100667.00;;;7.80
9119;BMP180;4594;50.994;7.126;2022-12-05T04:41:47;100671.00;;;7.80
9119;BMP180;4594;50.994;7.126;2022-12-05T04:44:19;100668.00;;;7.80
9119;BMP180;4594;50.994;7.126;2022-12-05T04:46:48;100674.00;;;7.80
9119;BMP180;4594;50.994;7.126;2022-12-05T04:49:21;100680.00;;;7.80
9119;BMP180;4594;50.994;7.126;2022-12-05T04:51:51;100672.00;;;7.80
9119;BMP180;4594;50.994;7.126;2022-12-05T04:54:35;100668.00;;;7.80
9119;BMP180;4594;50.994;7.126;2022-12-05T04:57:18;100664.00;;;7.80
9119;BMP180;4594;50.994;7.126;2022-12-05T04:59:46;100670.00;;;7.80
9119;BMP180;4594;50.994;7.126;2022-12-05T05:02:17;100675.00;;;7.80
9119;BMP180;4594;50.994;7.126;2022-12-05T05:04:48;100677.00;;;7.90
9119;BMP180;4594;50.994;7.126;2022-12-05T05:07:16;100679.00;;;7.80
9119;BMP180;4594;50.994;7.126;2022-12-05T05:09:43;100676.00;;;7.90
9119;BMP180;4594;50.994;7.126;2022-12-05T05:12:10;100680.00;;;7.90
9119;BMP180;4594;50.994;7.126;2022-12-05T05:14:36;100675.00;;;7.90
9119;BMP180;4594;50.994;7.126;2022-12-05T05:17:02;100672.00;;;7.80
9119;BMP180;4594;50.994;7.126;2022-12-05T05:19:27;100683.00;;;7.80
9119;BMP180;4594;50.994;7.126;2022-12-05T05:21:53;100686.00;;;7.80
9119;BMP180;4594;50.994;7.126;2022-12-05T05:24:19;100680.00;;;7.80
9119;BMP180;4594;50.994;7.126;2022-12-05T05:26:50;100685.00;;;7.80
9119;BMP180;4594;50.994;7.126;2022-12-05T05:29:16;100690.00;;;7.80
9119;BMP180;4594;50.994;7.126;2022-12-05T05:31:43;100700.00;;;7.80
9119;BMP180;4594;50.994;7.126;2022-12-05T05:34:10;100684.00;;;7.80
9119;BMP180;4594;50.994;7.126;2022-12-05T05:36:37;100699.00;;;7.80
9119;BMP180;4594;50.994;7.126;2022-12-05T05:39:05;100699.00;;;7.80
9119;BMP180;4594;50.994;7.126;2022-12-05T05:41:36;100691.00;;;7.80
9119;BMP180;4594;50.994;7.126;2022-12-05T05:44:03;100696.00;;;7.70
9119;BMP180;4594;50.994;7.126;2022-12-05T05:46:32;100698.00;;;7.80
9119;BMP180;4594;50.994;7.126;2022-12-05T05:48:58;100691.00;;;7.70
9119;BMP180;4594;50.994;7.126;2022-12-05T05:51:24;100696.00;;;7.70
9119;BMP180;4594;50.994;7.126;2022-12-05T05:53:52;100700.00;;;7.70
9119;BMP180;4594;50.994;7.126;2022-12-05T05:56:20;100691.00;;;7.70
9119;BMP180;4594;50.994;7.126;2022-12-05T05:58:45;100704.00;;;7.70
9119;BMP180;4594;50.994;7.126;2022-12-05T06:01:20;100704.00;;;7.70
9119;BMP180;4594;50.994;7.126;2022-12-05T06:03:46;100690.00;;;7.70
9119;BMP180;4594;50.994;7.126;2022-12-05T06:06:13;100702.00;;;7.80
9119;BMP180;4594;50.994;7.126;2022-12-05T06:08:42;100710.00;;;7.80
9119;BMP180;4594;50.994;7.126;2022-12-05T06:11:18;100703.00;;;7.80
9119;BMP180;4594;50.994;7.126;2022-12-05T06:13:44;100701.00;;;7.80
9119;BMP180;4594;50.994;7.126;2022-12-05T06:16:13;100710.00;;;7.80
9119;BMP180;4594;50.994;7.126;2022-12-05T06:18:40;100712.00;;;7.80
9119;BMP180;4594;50.994;7.126;2022-12-05T06:21:06;100713.00;;;7.90
9119;BMP180;4594;50.994;7.126;2022-12-05T06:23:36;100720.00;;;7.90
9119;BMP180;4594;50.994;7.126;2022-12-05T06:26:04;100712.00;;;7.90
9119;BMP180;4594;50.994;7.126;2022-12-05T06:28:30;100718.00;;;7.90
9119;BMP180;4594;50.994;7.126;2022-12-05T06:30:56;100713.00;;;7.90
9119;BMP180;4594;50.994;7.126;2022-12-05T06:33:22;100713.00;;;7.90
9119;BMP180;4594;50.994;7.126;2022-12-05T06:35:48;100708.00;;;7.90
9119;BMP180;4594;50.994;7.126;2022-12-05T06:38:14;100712.00;;;7.90
9119;BMP180;4594;50.994;7.126;2022-12-05T06:40:44;100727.00;;;7.90
9119;BMP180;4594;50.994;7.126;2022-12-05T06:43:10;100719.00;;;7.90
9119;BMP180;4594;50.994;7.126;2022-12-05T06:45:39;100728.00;;;7.90
9119;BMP180;4594;50.994;7.126;2022-12-05T06:48:05;100716.00;;;7.90
9119;BMP180;4594;50.994;7.126;2022-12-05T06:50:31;100720.00;;;7.90
9119;BMP180;4594;50.994;7.126;2022-12-05T06:52:56;100726.00;;;7.90
9119;BMP180;4594;50.994;7.126;2022-12-05T06:55:22;100733.00;;;7.90
9119;BMP180;4594;50.994;7.126;2022-12-05T06:57:48;100719.00;;;7.90
9119;BMP180;4594;50.994;7.126;2022-12-05T07:00:14;100729.00;;;7.90
9119;BMP180;4594;50.994;7.126;2022-12-05T07:02:58;100731.00;;;7.90
9119;BMP180;4594;50.994;7.126;2022-12-05T07:05:24;100726.00;;;7.90
9119;BMP180;4594;50.994;7.126;2022-12-05T07:07:50;100729.00;;;7.90
9119;BMP180;4594;50.994;7.126;2022-12-05T07:10:15;100735.00;;;7.90
9119;BMP180;4594;50.994;7.126;2022-12-05T07:12:41;100739.00;;;7.90
9119;BMP180;4594;50.994;7.126;2022-12-05T07:15:07;100744.00;;;7.90
9119;BMP180;4594;50.994;7.126;2022-12-05T07:17:37;100751.00;;;7.90
9119;BMP180;4594;50.994;7.126;2022-12-05T07:20:06;100754.00;;;7.90
9119;BMP180;4594;50.994;7.126;2022-12-05T07:22:35;100752.00;;;7.90
9119;BMP180;4594;50.994;7.126;2022-12-05T07:25:01;100748.00;;;7.90
9119;BMP180;4594;50.994;7.126;2022-12-05T07:27:27;100755.00;;;7.90
9119;BMP180;4594;50.994;7.126;2022-12-05T07:29:53;100752.00;;;7.90
9119;BMP180;4594;50.994;7.126;2022-12-05T07:32:19;100750.00;;;7.90
9119;BMP180;4594;50.994;7.126;2022-12-05T07:34:44;100761.00;;;8.00
9119;BMP180;4594;50.994;7.126;2022-12-05T07:37:10;100762.00;;;8.00
9119;BMP180;4594;50.994;7.126;2022-12-05T07:39:38;100765.00;;;8.00
9119;BMP180;4594;50.994;7.126;2022-12-05T07:42:03;100769.00;;;8.00
9119;BMP180;4594;50.994;7.126;2022-12-05T07:44:29;100764.00;;;8.00
9119;BMP180;4594;50.994;7.126;2022-12-05T07:46:56;100775.00;;;8.00
9119;BMP180;4594;50.994;7.126;2022-12-05T07:49:21;100772.00;;;8.00
9119;BMP180;4594;50.994;7.126;2022-12-05T07:51:47;100777.00;;;8.00
9119;BMP180;4594;50.994;7.126;2022-12-05T07:54:13;100778.00;;;8.10
9119;BMP180;4594;50.994;7.126;2022-12-05T07:56:38;100782.00;;;8.10
9119;BMP180;4594;50.994;7.126;2022-12-05T07:59:04;100781.00;;;8.10
9119;BMP180;4594;50.994;7.126;2022-12-05T08:01:30;100791.00;;;8.10
9119;BMP180;4594;50.994;7.126;2022-12-05T08:03:57;100786.00;;;8.00
9119;BMP180;4594;50.994;7.126;2022-12-05T08:06:28;100792.00;;;8.00
9119;BMP180;4594;50.994;7.126;2022-12-05T08:08:54;100782.00;;;8.00
9119;BMP180;4594;50.994;7.126;2022-12-05T08:11:30;100797.00;;;8.00
9119;BMP180;4594;50.994;7.126;2022-12-05T08:13:57;100786.00;;;8.10
9119;BMP180;4594;50.994;7.126;2022-12-05T08:16:27;100795.00;;;8.10
9119;BMP180;4594;50.994;7.126;2022-12-05T08:18:54;100797.00;;;8.10
9119;BMP180;4594;50.994;7.126;2022-12-05T08:21:21;100800.00;;;8.10
9119;BMP180;4594;50.994;7.126;2022-12-05T08:23:46;100797.00;;;8.10
9119;BMP180;4594;50.994;7.126;2022-12-05T08:26:24;100808.00;;;8.20
9119;BMP180;4594;50.994;7.126;2022-12-05T08:29:05;100808.00;;;8.20
9119;BMP180;4594;50.994;7.126;2022-12-05T08:31:35;100812.00;;;8.20
9119;BMP180;4594;50.994;7.126;2022-12-05T08:34:01;100812.00;;;8.20
9119;BMP180;4594;50.994;7.126;2022-12-05T08:36:29;100809.00;;;8.20
9119;BMP180;4594;50.994;7.126;2022-12-05T08:38:58;100824.00;;;8.20
9119;BMP180;4594;50.994;7.126;2022-12-05T08:41:24;100829.00;;;8.20
9119;BMP180;4594;50.994;7.126;2022-12-05T08:44:05;100829.00;;;8.30
9119;BMP180;4594;50.994;7.126;2022-12-05T08:46:34;100829.00;;;8.30
9119;BMP180;4594;50.994;7.126;2022-12-05T08:49:02;100846.00;;;8.30
9119;BMP180;4594;50.994;7.126;2022-12-05T08:51:28;100837.00;;;8.30
9119;BMP180;4594;50.994;7.126;2022-12-05T08:53:54;100835.00;;;8.30
9119;BMP180;4594;50.994;7.126;2022-12-05T08:56:21;100836.00;;;8.30
9119;BMP180;4594;50.994;7.126;2022-12-05T08:58:47;100833.00;;;8.40
9119;BMP180;4594;50.994;7.126;2022-12-05T09:01:19;100836.00;;;8.40
9119;BMP180;4594;50.994;7.126;2022-12-05T09:03:45;100835.00;;;8.40
9119;BMP180;4594;50.994;7.126;2022-12-05T09:06:21;100827.00;;;8.40
9119;BMP180;4594;50.994;7.126;2022-12-05T09:08:50;100838.00;;;8.50
9119;BMP180;4594;50.994;7.126;2022-12-05T09:11:21;100836.00;;;8.50
9119;BMP180;4594;50.994;7.126;2022-12-05T09:13:49;100845.00;;;8.50
9119;BMP180;4594;50.994;7.126;2022-12-05T09:16:20;100849.00;;;8.50
9119;BMP180;4594;50.994;7.126;2022-12-05T09:18:48;100838.00;;;8.60
9119;BMP180;4594;50.994;7.126;2022-12-05T09:21:17;100852.00;;;8.60
9119;BMP180;4594;50.994;7.126;2022-12-05T09:23:44;100849.00;;;8.70
9119;BMP180;4594;50.994;7.126;2022-12-05T09:26:14;100844.00;;;8.70
9119;BMP180;4594;50.994;7.126;2022-12-05T09:28:41;100852.00;;;8.70
9119;BMP180;4594;50.994;7.126;2022-12-05T09:31:12;100850.00;;;8.70
9119;BMP180;4594;50.994;7.126;2022-12-05T09:33:38;100844.00;;;8.80
9119;BMP180;4594;50.994;7.126;2022-12-05T09:36:14;100852.00;;;8.80
9119;BMP180;4594;50.994;7.126;2022-12-05T09:38:40;100855.00;;;8.80
9119;BMP180;4594;50.994;7.126;2022-12-05T09:41:28;100854.00;;;8.80
9119;BMP180;4594;50.994;7.126;2022-12-05T09:44:38;100859.00;;;8.80
9119;BMP180;4594;50.994;7.126;2022-12-05T09:55:45;100865.00;;;8.80
9119;BMP180;4594;50.994;7.126;2022-12-05T10:01:22;100847.00;;;8.80
9119;BMP180;4594;50.994;7.126;2022-12-05T10:16:09;100853.00;;;8.90
9119;BMP180;4594;50.994;7.126;2022-12-05T10:18:45;100852.00;;;8.90
9119;BMP180;4594;50.994;7.126;2022-12-05T10:21:19;100856.00;;;8.90
9119;BMP180;4594;50.994;7.126;2022-12-05T10:23:52;100852.00;;;8.90
9119;BMP180;4594;50.994;7.126;2022-12-05T10:26:21;100862.00;;;8.90
9119;BMP180;4594;50.994;7.126;2022-12-05T10:29:24;100866.00;;;8.90
9119;BMP180;4594;50.994;7.126;2022-12-05T10:32:03;100860.00;;;8.90
9119;BMP180;4594;50.994;7.126;2022-12-05T10:34:39;100861.00;;;8.90
9119;BMP180;4594;50.994;7.126;2022-12-05T10:37:22;100858.00;;;9.00
9119;BMP180;4594;50.994;7.126;2022-12-05T10:39:50;100856.00;;;9.00
9119;BMP180;4594;50.994;7.126;2022-12-05T10:42:22;100865.00;;;9.00
9119;BMP180;4594;50.994;7.126;2022-12-05T10:44:57;100865.00;;;9.10
9119;BMP180;4594;50.994;7.126;2022-12-05T10:47:24;100867.00;;;9.10
9119;BMP180;4594;50.994;7.126;2022-12-05T10:49:51;100863.00;;;9.20
9119;BMP180;4594;50.994;7.126;2022-12-05T10:52:19;100870.00;;;9.20
9119;BMP180;4594;50.994;7.126;2022-12-05T10:54:55;100868.00;;;9.20
9119;BMP180;4594;50.994;7.126;2022-12-05T10:57:27;100866.00;;;9.30
9119;BMP180;4594;50.994;7.126;2022-12-05T10:59:55;100869.00;;;9.30
9119;BMP180;4594;50.994;7.126;2022-12-05T11:02:30;100874.00;;;9.30
9119;BMP180;4594;50.994;7.126;2022-12-05T11:04:57;100866.00;;;9.30
9119;BMP180;4594;50.994;7.126;2022-12-05T11:07:44;100861.00;;;9.40
9119;BMP180;4594;50.994;7.126;2022-12-05T11:12:55;100865.00;;;9.40
9119;BMP180;4594;50.994;7.126;2022-12-05T11:15:28;100851.00;;;9.50
9119;BMP180;4594;50.994;7.126;2022-12-05T11:18:00;100866.00;;;9.50
9119;BMP180;4594;50.994;7.126;2022-12-05T11:20:42;100859.00;;;9.50
9119;BMP180;4594;50.994;7.126;2022-12-05T11:23:26;100863.00;;;9.50
9119;BMP180;4594;50.994;7.126;2022-12-05T11:25:54;100858.00;;;9.50
9119;BMP180;4594;50.994;7.126;2022-12-05T11:31:03;100862.00;;;9.60
9119;BMP180;4594;50.994;7.126;2022-12-05T11:33:33;100854.00;;;9.60
9119;BMP180;4594;50.994;7.126;2022-12-05T11:36:22;100860.00;;;9.60
9119;BMP180;4594;50.994;7.126;2022-12-05T11:38:48;100853.00;;;9.60
9119;BMP180;4594;50.994;7.126;2022-12-05T11:50:13;100850.00;;;9.60
9119;BMP180;4594;50.994;7.126;2022-12-05T11:56:25;100847.00;;;9.60
9119;BMP180;4594;50.994;7.126;2022-12-05T11:59:28;100837.00;;;9.60
9119;BMP180;4594;50.994;7.126;2022-12-05T12:10:59;100852.00;;;9.70
9119;BMP180;4594;50.994;7.126;2022-12-05T12:16:42;100838.00;;;9.60
9119;BMP180;4594;50.994;7.126;2022-12-05T12:40:29;100831.00;;;9.70
9119;BMP180;4594;50.994;7.126;2022-12-05T12:43:04;100846.00;;;9.80
9119;BMP180;4594;50.994;7.126;2022-12-05T12:48:32;100839.00;;;9.80
9119;BMP180;4594;50.994;7.126;2022-12-05T12:51:02;100837.00;;;9.90
9119;BMP180;4594;50.994;7.126;2022-12-05T12:54:08;100833.00;;;9.90
9119;BMP180;4594;50.994;7.126;2022-12-05T12:57:13;100830.00;;;9.90
9119;BMP180;4594;50.994;7.126;2022-12-05T13:02:49;100824.00;;;9.80
9119;BMP180;4594;50.994;7.126;2022-12-05T13:07:53;100836.00;;;9.90
9119;BMP180;4594;50.994;7.126;2022-12-05T13:10:38;100834.00;;;9.90
9119;BMP180;4594;50.994;7.126;2022-12-05T13:13:12;100828.00;;;9.90
9119;BMP180;4594;50.994;7.126;2022-12-05T13:16:08;100828.00;;;10.00
9119;BMP180;4594;50.994;7.126;2022-12-05T13:18:33;100818.00;;;9.90
9119;BMP180;4594;50.994;7.126;2022-12-05T13:21:04;100832.00;;;10.00
9119;BMP180;4594;50.994;7.126;2022-12-05T13:23:36;100820.00;;;10.00
9119;BMP180;4594;50.994;7.126;2022-12-05T13:26:10;100836.00;;;10.00
9119;BMP180;4594;50.994;7.126;2022-12-05T13:28:48;100837.00;;;10.00
9119;BMP180;4594;50.994;7.126;2022-12-05T13:31:14;100832.00;;;10.00
9119;BMP180;4594;50.994;7.126;2022-12-05T13:33:50;100830.00;;;10.00
9119;BMP180;4594;50.994;7.126;2022-12-05T13:36:20;100837.00;;;10.00
9119;BMP180;4594;50.994;7.126;2022-12-05T13:41:57;100837.00;;;10.00
9119;BMP180;4594;50.994;7.126;2022-12-05T13:47:45;100839.00;;;9.90
9119;BMP180;4594;50.994;7.126;2022-12-05T13:50:41;100844.00;;;9.90
9119;BMP180;4594;50.994;7.126;2022-12-05T13:58:56;100847.00;;;10.00
9119;BMP180;4594;50.994;7.126;2022-12-05T14:17:31;100858.00;;;9.90
9119;BMP180;4594;50.994;7.126;2022-12-05T14:20:08;100861.00;;;9.90
9119;BMP180;4594;50.994;7.126;2022-12-05T14:34:34;100859.00;;;9.80
9119;BMP180;4594;50.994;7.126;2022-12-05T14:37:28;100861.00;;;9.80
9119;BMP180;4594;50.994;7.126;2022-12-05T14:39:58;100862.00;;;9.80
9119;BMP180;4594;50.994;7.126;2022-12-05T14:42:54;100860.00;;;9.80
9119;BMP180;4594;50.994;7.126;2022-12-05T14:45:30;100853.00;;;9.80
9119;BMP180;4594;50.994;7.126;2022-12-05T14:48:26;100867.00;;;9.80
9119;BMP180;4594;50.994;7.126;2022-12-05T14:50:54;100859.00;;;9.80
9119;BMP180;4594;50.994;7.126;2022-12-05T14:53:21;100863.00;;;9.80
9119;BMP180;4594;50.994;7.126;2022-12-05T14:58:49;100863.00;;;9.80
9119;BMP180;4594;50.994;7.126;2022-12-05T15:01:27;100857.00;;;9.80
9119;BMP180;4594;50.994;7.126;2022-12-05T15:06:53;100867.00;;;9.80
9119;BMP180;4594;50.994;7.126;2022-12-05T15:12:56;100869.00;;;9.70
9119;BMP180;4594;50.994;7.126;2022-12-05T15:18:23;100871.00;;;9.70
9119;BMP180;4594;50.994;7.126;2022-12-05T15:21:34;100876.00;;;9.70
9119;BMP180;4594;50.994;7.126;2022-12-05T15:24:11;100878.00;;;9.70
9119;BMP180;4594;50.994;7.126;2022-12-05T15:26:45;100883.00;;;9.70
9119;BMP180;4594;50.994;7.126;2022-12-05T15:32:05;100892.00;;;9.70
9119;BMP180;4594;50.994;7.126;2022-12-05T15:37:27;100897.00;;;9.70
9119;BMP180;4594;50.994;7.126;2022-12-05T15:40:09;100897.00;;;9.60
9119;BMP180;4594;50.994;7.126;2022-12-05T15:42:41;100894.00;;;9.60
9119;BMP180;4594;50.994;7.126;2022-12-05T15:47:48;100893.00;;;9.60
9119;BMP180;4594;50.994;7.126;2022-12-05T15:58:45;100907.00;;;9.50
9119;BMP180;4594;50.994;7.126;2022-12-05T16:01:19;100904.00;;;9.50
9119;BMP180;4594;50.994;7.126;2022-12-05T16:04:22;100909.00;;;9.50
9119;BMP180;4594;50.994;7.126;2022-12-05T16:06:54;100905.00;;;9.50
9119;BMP180;4594;50.994;7.126;2022-12-05T16:09:25;100917.00;;;9.50
9119;BMP180;4594;50.994;7.126;2022-12-05T16:12:03;100920.00;;;9.50
9119;BMP180;4594;50.994;7.126;2022-12-05T16:14:35;100923.00;;;9.40
9119;BMP180;4594;50.994;7.126;2022-12-05T16:17:02;100917.00;;;9.40
9119;BMP180;4594;50.994;7.126;2022-12-05T16:19:29;100921.00;;;9.40
9119;BMP180;4594;50.994;7.126;2022-12-05T16:27:33;100920.00;;;9.30
9119;BMP180;4594;50.994;7.126;2022-12-05T16:32:39;100913.00;;;9.30
9119;BMP180;4594;50.994;7.126;2022-12-05T16:38:25;100924.00;;;9.20
9119;BMP180;4594;50.994;7.126;2022-12-05T16:41:04;100932.00;;;9.20
9119;BMP180;4594;50.994;7.126;2022-12-05T16:48:47;100937.00;;;9.10
9119;BMP180;4594;50.994;7.126;2022-12-05T16:51:42;100934.00;;;9.10
9119;BMP180;4594;50.994;7.126;2022-12-05T16:54:08;100934.00;;;9.10
9119;BMP180;4594;50.994;7.126;2022-12-05T16:56:34;100923.00;;;9.10
9119;BMP180;4594;50.994;7.126;2022-12-05T16:59:05;100934.00;;;9.00
9119;BMP180;4594;50.994;7.126;2022-12-05T17:01:32;100946.00;;;9.00
9119;BMP180;4594;50.994;7.126;2022-12-05T17:03:58;100940.00;;;9.00
9119;BMP180;4594;50.994;7.126;2022-12-05T17:06:25;100941.00;;;9.00
9119;BMP180;4594;50.994;7.126;2022-12-05T17:08:52;100949.00;;;9.00
9119;BMP180;4594;50.994;7.126;2022-12-05T17:11:26;100930.00;;;9.00
9119;BMP180;4594;50.994;7.126;2022-12-05T17:13:55;100935.00;;;9.00
9119;BMP180;4594;50.994;7.126;2022-12-05T17:16:21;100943.00;;;8.90
9119;BMP180;4594;50.994;7.126;2022-12-05T17:18:47;100946.00;;;8.90
9119;BMP180;4594;50.994;7.126;2022-12-05T17:21:25;100955.00;;;8.90
9119;BMP180;4594;50.994;7.126;2022-12-05T17:23:53;100954.00;;;8.90
9119;BMP180;4594;50.994;7.126;2022-12-05T17:26:21;100956.00;;;8.90
9119;BMP180;4594;50.994;7.126;2022-12-05T17:28:48;100952.00;;;8.90
9119;BMP180;4594;50.994;7.126;2022-12-05T17:31:23;100948.00;;;8.80
9119;BMP180;4594;50.994;7.126;2022-12-05T17:33:51;100953.00;;;8.80
9119;BMP180;4594;50.994;7.126;2022-12-05T17:36:18;100931.00;;;8.80
9119;BMP180;4594;50.994;7.126;2022-12-05T17:38:48;100946.00;;;8.70
9119;BMP180;4594;50.994;7.126;2022-12-05T17:41:23;100948.00;;;8.70
9119;BMP180;4594;50.994;7.126;2022-12-05T17:43:49;100953.00;;;8.70
9119;BMP180;4594;50.994;7.126;2022-12-05T17:46:19;100957.00;;;8.70
9119;BMP180;4594;50.994;7.126;2022-12-05T17:48:47;100957.00;;;8.70
9119;BMP180;4594;50.994;7.126;2022-12-05T17:51:13;100961.00;;;8.70
9119;BMP180;4594;50.994;7.126;2022-12-05T17:53:40;100968.00;;;8.60
9119;BMP180;4594;50.994;7.126;2022-12-05T17:56:07;100964.00;;;8.60
9119;BMP180;4594;50.994;7.126;2022-12-05T17:58:33;100947.00;;;8.60
9119;BMP180;4594;50.994;7.126;2022-12-05T18:00:59;100948.00;;;8.60
9119;BMP180;4594;50.994;7.126;2022-12-05T18:03:25;100941.00;;;8.50
9119;BMP180;4594;50.994;7.126;2022-12-05T18:05:51;100952.00;;;8.50
9119;BMP180;4594;50.994;7.126;2022-12-05T18:08:17;100957.00;;;8.50
9119;BMP180;4594;50.994;7.126;2022-12-05T18:10:45;100958.00;;;8.50
9119;BMP180;4594;50.994;7.126;2022-12-05T18:13:12;100968.00;;;8.50
9119;BMP180;4594;50.994;7.126;2022-12-05T18:15:39;100962.00;;;8.50
9119;BMP180;4594;50.994;7.126;2022-12-05T18:18:14;100967.00;;;8.50
9119;BMP180;4594;50.994;7.126;2022-12-05T18:21:11;100963.00;;;8.40
9119;BMP180;4594;50.994;7.126;2022-12-05T18:23:39;100976.00;;;8.40
9119;BMP180;4594;50.994;7.126;2022-12-05T18:26:07;100966.00;;;8.40